sensor_id;sensor_type;location;lat;lon;timestamp;pressure;altitude;pressure_sealevel;temperature;humidity
65718;BME280;52445;52.466;-1.016;2023-03-04T00:00:14;101688.63;;;5.20;64.63
65718;BME280;52445;52.466;-1.016;2023-03-04T00:02:41;101692.94;;;5.21;64.62
65718;BME280;52445;52.466;-1.016;2023-03-04T00:05:08;101686.81;;;5.19;64.18
65718;BME280;52445;52.466;-1.016;2023-03-04T00:07:34;101684.34;;;5.20;64.81
65718;BME280;52445;52.466;-1.016;2023-03-04T00:10:01;101683.47;;;5.20;64.90
65718;BME280;52445;52.466;-1.016;2023-03-04T00:12:28;101683.19;;;5.13;64.49
65718;BME280;52445;52.466;-1.016;2023-03-04T00:14:54;101686.72;;;5.16;64.81
65718;BME280;52445;52.466;-1.016;2023-03-04T00:17:21;101683.31;;;5.17;64.67
65718;BME280;52445;52.466;-1.016;2023-03-04T00:19:47;101680.53;;;5.12;64.56
65718;BME280;52445;52.466;-1.016;2023-03-04T00:22:14;101684.94;;;5.14;64.87
65718;BME280;52445;52.466;-1.016;2023-03-04T00:24:41;101685.66;;;5.12;64.80
65718;BME280;52445;52.466;-1.016;2023-03-04T00:27:07;101681.28;;;5.09;65.18
65718;BME280;52445;52.466;-1.016;2023-03-04T00:29:34;101689.00;;;5.09;64.85
65718;BME280;52445;52.466;-1.016;2023-03-04T00:32:01;101688.16;;;5.10;65.13
65718;BME280;52445;52.466;-1.016;2023-03-04T00:34:27;101689.94;;;5.11;64.49
65718;BME280;52445;52.466;-1.016;2023-03-04T00:36:57;101689.13;;;5.12;65.06
65718;BME280;52445;52.466;-1.016;2023-03-04T00:39:27;101697.69;;;5.13;64.89
65718;BME280;52445;52.466;-1.016;2023-03-04T00:41:54;101696.03;;;5.13;64.77
65718;BME280;52445;52.466;-1.016;2023-03-04T00:44:20;101699.47;;;5.14;65.46
65718;BME280;52445;52.466;-1.016;2023-03-04T00:46:47;101696.84;;;5.12;64.77
65718;BME280;52445;52.466;-1.016;2023-03-04T00:49:14;101697.50;;;5.08;64.57
65718;BME280;52445;52.466;-1.016;2023-03-04T00:51:41;101690.47;;;5.04;65.05
65718;BME280;52445;52.466;-1.016;2023-03-04T00:54:07;101691.25;;;5.03;65.03
65718;BME280;52445;52.466;-1.016;2023-03-04T00:56:34;101689.44;;;5.00;64.09
65718;BME280;52445;52.466;-1.016;2023-03-04T00:59:00;101696.28;;;5.00;64.82
65718;BME280;52445;52.466;-1.016;2023-03-04T01:01:27;101692.88;;;5.01;64.27
65718;BME280;52445;52.466;-1.016;2023-03-04T01:03:54;101696.13;;;4.97;64.46
65718;BME280;52445;52.466;-1.016;2023-03-04T01:06:23;101687.69;;;4.99;64.75
65718;BME280;52445;52.466;-1.016;2023-03-04T01:08:50;101696.97;;;4.97;65.20
65718;BME280;52445;52.466;-1.016;2023-03-04T01:11:16;101689.34;;;4.99;64.65
65718;BME280;52445;52.466;-1.016;2023-03-04T01:13:43;101693.72;;;5.00;64.51
65718;BME280;52445;52.466;-1.016;2023-03-04T01:16:10;101692.75;;;4.98;65.10
65718;BME280;52445;52.466;-1.016;2023-03-04T01:18:38;101693.72;;;5.00;65.04
65718;BME280;52445;52.466;-1.016;2023-03-04T01:21:05;101703.16;;;5.01;64.74
65718;BME280;52445;52.466;-1.016;2023-03-04T01:23:32;101696.28;;;5.00;64.71
65718;BME280;52445;52.466;-1.016;2023-03-04T01:25:58;101695.31;;;4.98;65.15
65718;BME280;52445;52.466;-1.016;2023-03-04T01:28:25;101691.84;;;4.97;64.65
65718;BME280;52445;52.466;-1.016;2023-03-04T01:30:51;101698.78;;;4.98;65.50
65718;BME280;52445;52.466;-1.016;2023-03-04T01:33:18;101698.84;;;5.00;65.21
65718;BME280;52445;52.466;-1.016;2023-03-04T01:35:45;101681.72;;;5.00;65.42
65718;BME280;52445;52.466;-1.016;2023-03-04T01:38:11;101688.63;;;5.01;64.83
65718;BME280;52445;52.466;-1.016;2023-03-04T01:40:38;101686.94;;;5.02;65.20
65718;BME280;52445;52.466;-1.016;2023-03-04T01:43:05;101687.00;;;5.04;64.72
65718;BME280;52445;52.466;-1.016;2023-03-04T01:45:32;101679.22;;;5.02;65.19
65718;BME280;52445;52.466;-1.016;2023-03-04T01:48:00;101673.84;;;4.96;65.40
65718;BME280;52445;52.466;-1.016;2023-03-04T01:50:31;101663.56;;;4.96;65.34
65718;BME280;52445;52.466;-1.016;2023-03-04T01:52:58;101666.75;;;4.92;64.93
65718;BME280;52445;52.466;-1.016;2023-03-04T01:55:25;101667.72;;;4.94;65.01
65718;BME280;52445;52.466;-1.016;2023-03-04T01:57:52;101661.63;;;4.92;65.11
65718;BME280;52445;52.466;-1.016;2023-03-04T02:03:03;101656.50;;;4.92;64.67
65718;BME280;52445;52.466;-1.016;2023-03-04T02:05:33;101661.63;;;4.92;65.11
65718;BME280;52445;52.466;-1.016;2023-03-04T02:08:02;101647.94;;;4.91;65.32
65718;BME280;52445;52.466;-1.016;2023-03-04T02:10:30;101653.06;;;4.91;64.99
65718;BME280;52445;52.466;-1.016;2023-03-04T02:12:58;101655.63;;;4.91;65.25
65718;BME280;52445;52.466;-1.016;2023-03-04T02:15:24;101650.50;;;4.91;65.10
65718;BME280;52445;52.466;-1.016;2023-03-04T02:17:51;101647.03;;;4.91;64.95
65718;BME280;52445;52.466;-1.016;2023-03-04T02:25:38;101641.91;;;4.91;65.26
65718;BME280;52445;52.466;-1.016;2023-03-04T02:28:07;101644.47;;;4.91;65.06
65718;BME280;52445;52.466;-1.016;2023-03-04T02:30:33;101637.66;;;4.91;65.55
65718;BME280;52445;52.466;-1.016;2023-03-04T02:33:00;101644.47;;;4.91;65.17
65718;BME280;52445;52.466;-1.016;2023-03-04T02:35:27;101637.59;;;4.89;65.02
65718;BME280;52445;52.466;-1.016;2023-03-04T02:37:53;101642.72;;;4.89;65.60
65718;BME280;52445;52.466;-1.016;2023-03-04T02:40:28;101645.22;;;4.88;65.60
65718;BME280;52445;52.466;-1.016;2023-03-04T02:42:58;101640.97;;;4.88;65.65
65718;BME280;52445;52.466;-1.016;2023-03-04T02:48:07;101630.41;;;4.82;65.52
65718;BME280;52445;52.466;-1.016;2023-03-04T02:50:38;101627.00;;;4.83;64.96
65718;BME280;52445;52.466;-1.016;2023-03-04T02:53:06;101625.25;;;4.82;65.48
65718;BME280;52445;52.466;-1.016;2023-03-04T02:55:32;101619.97;;;4.79;65.39
65718;BME280;52445;52.466;-1.016;2023-03-04T02:57:59;101619.25;;;4.82;65.38
65718;BME280;52445;52.466;-1.016;2023-03-04T03:00:26;101623.50;;;4.81;65.08
65718;BME280;52445;52.466;-1.016;2023-03-04T03:02:53;101619.16;;;4.80;64.95
65718;BME280;52445;52.466;-1.016;2023-03-04T03:05:27;101618.38;;;4.81;65.83
65718;BME280;52445;52.466;-1.016;2023-03-04T03:07:55;101620.88;;;4.80;65.45
65718;BME280;52445;52.466;-1.016;2023-03-04T03:10:22;101615.75;;;4.80;65.83
65718;BME280;52445;52.466;-1.016;2023-03-04T03:12:49;101619.97;;;4.79;65.21
65718;BME280;52445;52.466;-1.016;2023-03-04T03:15:16;101618.22;;;4.78;65.49
65718;BME280;52445;52.466;-1.016;2023-03-04T03:17:42;101616.47;;;4.77;65.72
65718;BME280;52445;52.466;-1.016;2023-03-04T03:20:10;101624.97;;;4.76;65.75
65718;BME280;52445;52.466;-1.016;2023-03-04T03:22:38;101622.34;;;4.74;65.77
65718;BME280;52445;52.466;-1.016;2023-03-04T03:25:05;101618.91;;;4.74;65.30
65718;BME280;52445;52.466;-1.016;2023-03-04T03:27:32;101619.56;;;4.70;65.86
65718;BME280;52445;52.466;-1.016;2023-03-04T03:29:59;101612.81;;;4.72;65.52
65718;BME280;52445;52.466;-1.016;2023-03-04T03:32:25;101616.19;;;4.71;65.51
65718;BME280;52445;52.466;-1.016;2023-03-04T03:34:52;101616.19;;;4.71;65.54
65718;BME280;52445;52.466;-1.016;2023-03-04T03:37:19;101607.59;;;4.70;65.80
65718;BME280;52445;52.466;-1.016;2023-03-04T03:39:45;101617.00;;;4.70;65.63
65718;BME280;52445;52.466;-1.016;2023-03-04T03:42:12;101612.81;;;4.72;65.17
65718;BME280;52445;52.466;-1.016;2023-03-04T03:44:38;101617.06;;;4.71;65.98
65718;BME280;52445;52.466;-1.016;2023-03-04T03:47:05;101613.63;;;4.71;65.49
65718;BME280;52445;52.466;-1.016;2023-03-04T03:49:32;101615.25;;;4.69;65.61
65718;BME280;52445;52.466;-1.016;2023-03-04T03:51:59;101610.03;;;4.67;65.29
65718;BME280;52445;52.466;-1.016;2023-03-04T03:54:25;101601.53;;;4.68;65.76
65718;BME280;52445;52.466;-1.016;2023-03-04T03:56:52;101610.13;;;4.69;65.59
65718;BME280;52445;52.466;-1.016;2023-03-04T03:59:18;101604.16;;;4.70;65.82
65718;BME280;52445;52.466;-1.016;2023-03-04T04:01:45;101599.88;;;4.70;65.61
65718;BME280;52445;52.466;-1.016;2023-03-04T04:04:12;101599.03;;;4.70;65.75
65718;BME280;52445;52.466;-1.016;2023-03-04T04:06:38;101594.75;;;4.70;65.58
65718;BME280;52445;52.466;-1.016;2023-03-04T04:09:05;101602.41;;;4.69;65.61
65718;BME280;52445;52.466;-1.016;2023-03-04T04:11:32;101596.38;;;4.68;65.52
65718;BME280;52445;52.466;-1.016;2023-03-04T04:13:58;101604.03;;;4.67;65.54
65718;BME280;52445;52.466;-1.016;2023-03-04T04:16:25;101600.47;;;4.65;65.93
65718;BME280;52445;52.466;-1.016;2023-03-04T04:18:52;101598.72;;;4.63;65.58
65718;BME280;52445;52.466;-1.016;2023-03-04T04:21:19;101602.13;;;4.62;65.45
65718;BME280;52445;52.466;-1.016;2023-03-04T04:23:45;101599.47;;;4.61;65.78
65718;BME280;52445;52.466;-1.016;2023-03-04T04:26:12;101598.59;;;4.60;65.19
65718;BME280;52445;52.466;-1.016;2023-03-04T04:28:39;101591.69;;;4.59;65.24
65718;BME280;52445;52.466;-1.016;2023-03-04T04:31:07;101599.47;;;4.61;65.59
65718;BME280;52445;52.466;-1.016;2023-03-04T04:33:36;101601.97;;;4.59;66.05
65718;BME280;52445;52.466;-1.016;2023-03-04T04:36:03;101601.97;;;4.59;65.47
65718;BME280;52445;52.466;-1.016;2023-03-04T04:38:30;101601.16;;;4.60;65.81
65718;BME280;52445;52.466;-1.016;2023-03-04T04:40:57;101613.13;;;4.60;65.21
65718;BME280;52445;52.466;-1.016;2023-03-04T04:43:24;101611.38;;;4.59;65.25
65718;BME280;52445;52.466;-1.016;2023-03-04T04:45:51;101610.47;;;4.58;65.53
65718;BME280;52445;52.466;-1.016;2023-03-04T04:48:18;101608.72;;;4.57;65.51
65718;BME280;52445;52.466;-1.016;2023-03-04T04:50:44;101607.91;;;4.58;65.64
65718;BME280;52445;52.466;-1.016;2023-03-04T04:53:12;101606.09;;;4.56;65.76
65718;BME280;52445;52.466;-1.016;2023-03-04T04:55:39;101608.59;;;4.54;66.02
65718;BME280;52445;52.466;-1.016;2023-03-04T04:58:06;101613.72;;;4.54;65.49
65718;BME280;52445;52.466;-1.016;2023-03-04T05:00:33;101616.28;;;4.54;65.69
65718;BME280;52445;52.466;-1.016;2023-03-04T05:02:59;101616.19;;;4.53;65.43
65718;BME280;52445;52.466;-1.016;2023-03-04T05:05:26;101612.59;;;4.49;65.78
65718;BME280;52445;52.466;-1.016;2023-03-04T05:07:53;101624.50;;;4.47;65.94
65718;BME280;52445;52.466;-1.016;2023-03-04T05:10:19;101616.94;;;4.50;66.04
65718;BME280;52445;52.466;-1.016;2023-03-04T05:12:46;101624.56;;;4.48;65.77
65718;BME280;52445;52.466;-1.016;2023-03-04T05:15:12;101619.44;;;4.48;66.25
65718;BME280;52445;52.466;-1.016;2023-03-04T05:17:39;101623.66;;;4.48;65.59
65718;BME280;52445;52.466;-1.016;2023-03-04T05:20:06;101621.09;;;4.48;66.17
65718;BME280;52445;52.466;-1.016;2023-03-04T05:22:33;101623.66;;;4.48;65.89
65718;BME280;52445;52.466;-1.016;2023-03-04T05:24:59;101623.66;;;4.48;66.01
65718;BME280;52445;52.466;-1.016;2023-03-04T05:27:26;101624.56;;;4.48;65.32
65718;BME280;52445;52.466;-1.016;2023-03-04T05:29:52;101625.31;;;4.46;65.97
65718;BME280;52445;52.466;-1.016;2023-03-04T05:32:20;101625.38;;;4.47;65.78
65718;BME280;52445;52.466;-1.016;2023-03-04T05:34:47;101633.06;;;4.47;65.60
65718;BME280;52445;52.466;-1.016;2023-03-04T05:37:14;101633.06;;;4.47;65.82
65718;BME280;52445;52.466;-1.016;2023-03-04T05:39:40;101636.34;;;4.45;65.89
65718;BME280;52445;52.466;-1.016;2023-03-04T05:42:07;101639.56;;;4.41;65.67
65718;BME280;52445;52.466;-1.016;2023-03-04T05:44:33;101635.25;;;4.40;65.77
65718;BME280;52445;52.466;-1.016;2023-03-04T05:47:00;101631.88;;;4.41;65.95
65718;BME280;52445;52.466;-1.016;2023-03-04T05:49:26;101642.88;;;4.38;66.07
65718;BME280;52445;52.466;-1.016;2023-03-04T05:51:53;101636.00;;;4.37;65.88
65718;BME280;52445;52.466;-1.016;2023-03-04T05:54:19;101631.75;;;4.37;65.90
65718;BME280;52445;52.466;-1.016;2023-03-04T05:56:47;101637.75;;;4.38;65.67
65718;BME280;52445;52.466;-1.016;2023-03-04T05:59:13;101636.88;;;4.37;65.89
65718;BME280;52445;52.466;-1.016;2023-03-04T06:01:46;101636.06;;;4.39;65.84
65718;BME280;52445;52.466;-1.016;2023-03-04T06:04:13;101640.38;;;4.40;66.08
65718;BME280;52445;52.466;-1.016;2023-03-04T06:06:40;101635.25;;;4.40;66.11
65718;BME280;52445;52.466;-1.016;2023-03-04T06:09:06;101631.88;;;4.41;66.15
65718;BME280;52445;52.466;-1.016;2023-03-04T06:11:33;101631.75;;;4.37;66.19
65718;BME280;52445;52.466;-1.016;2023-03-04T06:14:01;101638.47;;;4.35;65.99
65718;BME280;52445;52.466;-1.016;2023-03-04T06:16:28;101636.88;;;4.37;66.13
65718;BME280;52445;52.466;-1.016;2023-03-04T06:18:55;101638.47;;;4.35;65.76
65718;BME280;52445;52.466;-1.016;2023-03-04T06:21:21;101629.81;;;4.33;65.84
65718;BME280;52445;52.466;-1.016;2023-03-04T06:23:48;101635.84;;;4.34;65.88
65718;BME280;52445;52.466;-1.016;2023-03-04T06:26:15;101637.50;;;4.33;65.99
65718;BME280;52445;52.466;-1.016;2023-03-04T06:28:42;101634.94;;;4.33;65.81
65718;BME280;52445;52.466;-1.016;2023-03-04T06:31:09;101631.44;;;4.31;66.14
65718;BME280;52445;52.466;-1.016;2023-03-04T06:33:35;101639.97;;;4.30;66.02
65718;BME280;52445;52.466;-1.016;2023-03-04T06:36:02;101636.41;;;4.28;66.09
65718;BME280;52445;52.466;-1.016;2023-03-04T06:38:29;101640.75;;;4.29;66.04
65718;BME280;52445;52.466;-1.016;2023-03-04T06:40:55;101639.88;;;4.29;65.71
65718;BME280;52445;52.466;-1.016;2023-03-04T06:43:23;101641.56;;;4.28;65.98
65718;BME280;52445;52.466;-1.016;2023-03-04T06:45:49;101639.13;;;4.31;66.65
65718;BME280;52445;52.466;-1.016;2023-03-04T06:48:16;101635.53;;;4.28;66.02
65718;BME280;52445;52.466;-1.016;2023-03-04T06:50:45;101642.44;;;4.29;65.85
65718;BME280;52445;52.466;-1.016;2023-03-04T06:53:11;101641.56;;;4.28;65.94
65718;BME280;52445;52.466;-1.016;2023-03-04T06:55:38;101645.78;;;4.28;65.98
65718;BME280;52445;52.466;-1.016;2023-03-04T06:58:04;101647.50;;;4.27;66.02
65718;BME280;52445;52.466;-1.016;2023-03-04T07:00:31;101644.94;;;4.27;66.41
65718;BME280;52445;52.466;-1.016;2023-03-04T07:02:58;101648.31;;;4.26;65.87
65718;BME280;52445;52.466;-1.016;2023-03-04T07:05:25;101651.66;;;4.25;66.11
65718;BME280;52445;52.466;-1.016;2023-03-04T07:07:52;101651.66;;;4.25;66.16
65718;BME280;52445;52.466;-1.016;2023-03-04T07:10:19;101651.53;;;4.22;66.13
65718;BME280;52445;52.466;-1.016;2023-03-04T07:12:45;101659.22;;;4.22;66.00
65718;BME280;52445;52.466;-1.016;2023-03-04T07:15:12;101652.47;;;4.24;65.82
65718;BME280;52445;52.466;-1.016;2023-03-04T07:17:39;101661.13;;;4.26;66.15
65718;BME280;52445;52.466;-1.016;2023-03-04T07:20:06;101663.69;;;4.26;65.80
65718;BME280;52445;52.466;-1.016;2023-03-04T07:22:32;101668.81;;;4.26;66.01
65718;BME280;52445;52.466;-1.016;2023-03-04T07:24:59;101667.19;;;4.28;66.09
65718;BME280;52445;52.466;-1.016;2023-03-04T07:27:26;101662.22;;;4.31;65.71
65718;BME280;52445;52.466;-1.016;2023-03-04T07:29:52;101664.88;;;4.33;65.88
65718;BME280;52445;52.466;-1.016;2023-03-04T07:32:19;101667.44;;;4.33;65.83
65718;BME280;52445;52.466;-1.016;2023-03-04T07:34:45;101665.72;;;4.33;66.14
65718;BME280;52445;52.466;-1.016;2023-03-04T07:37:12;101672.50;;;4.31;65.80
65718;BME280;52445;52.466;-1.016;2023-03-04T07:39:38;101678.56;;;4.33;66.01
65718;BME280;52445;52.466;-1.016;2023-03-04T07:42:05;101682.75;;;4.31;65.83
65718;BME280;52445;52.466;-1.016;2023-03-04T07:44:32;101676.44;;;4.24;65.71
65718;BME280;52445;52.466;-1.016;2023-03-04T07:46:58;101668.94;;;4.29;65.81
65718;BME280;52445;52.466;-1.016;2023-03-04T07:49:25;101672.50;;;4.31;65.75
65718;BME280;52445;52.466;-1.016;2023-03-04T07:51:51;101682.75;;;4.31;65.65
65718;BME280;52445;52.466;-1.016;2023-03-04T07:54:18;101689.63;;;4.32;66.24
65718;BME280;52445;52.466;-1.016;2023-03-04T07:56:45;101691.38;;;4.33;65.49
65718;BME280;52445;52.466;-1.016;2023-03-04T07:59:12;101686.25;;;4.33;65.35
65718;BME280;52445;52.466;-1.016;2023-03-04T08:01:38;101696.69;;;4.36;65.34
65718;BME280;52445;52.466;-1.016;2023-03-04T08:04:06;101693.31;;;4.37;64.91
65718;BME280;52445;52.466;-1.016;2023-03-04T08:06:33;101697.66;;;4.39;65.42
65718;BME280;52445;52.466;-1.016;2023-03-04T08:09:03;101696.84;;;4.40;65.52
65718;BME280;52445;52.466;-1.016;2023-03-04T08:11:32;101694.19;;;4.38;65.41
65718;BME280;52445;52.466;-1.016;2023-03-04T08:13:59;101699.41;;;4.40;65.54
65718;BME280;52445;52.466;-1.016;2023-03-04T08:16:26;101690.97;;;4.42;65.45
65718;BME280;52445;52.466;-1.016;2023-03-04T08:18:55;101705.63;;;4.45;65.27
65718;BME280;52445;52.466;-1.016;2023-03-04T08:21:24;101686.97;;;4.47;65.31
65718;BME280;52445;52.466;-1.016;2023-03-04T08:23:52;101695.69;;;4.51;65.39
65718;BME280;52445;52.466;-1.016;2023-03-04T08:26:23;101692.13;;;4.49;65.37
65718;BME280;52445;52.466;-1.016;2023-03-04T08:28:51;101687.16;;;4.52;65.13
65718;BME280;52445;52.466;-1.016;2023-03-04T08:31:18;101686.44;;;4.55;65.31
65718;BME280;52445;52.466;-1.016;2023-03-04T08:33:45;101690.69;;;4.54;65.65
65718;BME280;52445;52.466;-1.016;2023-03-04T08:36:14;101689.88;;;4.55;65.54
65718;BME280;52445;52.466;-1.016;2023-03-04T08:38:40;101683.81;;;4.53;65.07
65718;BME280;52445;52.466;-1.016;2023-03-04T08:41:07;101676.97;;;4.54;65.04
65718;BME280;52445;52.466;-1.016;2023-03-04T08:43:33;101686.38;;;4.53;65.82
65718;BME280;52445;52.466;-1.016;2023-03-04T08:46:01;101683.66;;;4.50;65.43
65718;BME280;52445;52.466;-1.016;2023-03-04T08:48:28;101680.28;;;4.51;64.53
65718;BME280;52445;52.466;-1.016;2023-03-04T08:50:54;101686.44;;;4.55;64.99
65718;BME280;52445;52.466;-1.016;2023-03-04T08:53:21;101678.81;;;4.56;65.12
65718;BME280;52445;52.466;-1.016;2023-03-04T08:55:49;101683.94;;;4.56;65.41
65718;BME280;52445;52.466;-1.016;2023-03-04T08:58:16;101687.31;;;4.55;64.61
65718;BME280;52445;52.466;-1.016;2023-03-04T09:00:44;101680.72;;;4.60;65.14
65718;BME280;52445;52.466;-1.016;2023-03-04T09:03:13;101687.47;;;4.58;65.07
65718;BME280;52445;52.466;-1.016;2023-03-04T09:05:40;101686.59;;;4.58;65.18
65718;BME280;52445;52.466;-1.016;2023-03-04T09:08:07;101687.75;;;4.65;64.83
65718;BME280;52445;52.466;-1.016;2023-03-04T09:10:33;101686.16;;;4.67;65.03
65718;BME280;52445;52.466;-1.016;2023-03-04T09:13:00;101676.78;;;4.67;64.66
65718;BME280;52445;52.466;-1.016;2023-03-04T09:15:27;101673.25;;;4.65;65.46
65718;BME280;52445;52.466;-1.016;2023-03-04T09:17:54;101675.88;;;4.67;64.67
65718;BME280;52445;52.466;-1.016;2023-03-04T09:20:20;101686.31;;;4.70;65.32
65718;BME280;52445;52.466;-1.016;2023-03-04T09:22:48;101681.31;;;4.73;64.86
65718;BME280;52445;52.466;-1.016;2023-03-04T09:25:15;101686.59;;;4.76;65.21
65718;BME280;52445;52.466;-1.016;2023-03-04T09:27:42;101679.69;;;4.75;64.92
65718;BME280;52445;52.466;-1.016;2023-03-04T09:30:09;101686.66;;;4.78;65.11
65718;BME280;52445;52.466;-1.016;2023-03-04T09:32:36;101690.94;;;4.77;64.82
65718;BME280;52445;52.466;-1.016;2023-03-04T09:35:03;101688.56;;;4.82;64.50
65718;BME280;52445;52.466;-1.016;2023-03-04T09:37:30;101682.72;;;4.84;64.83
65718;BME280;52445;52.466;-1.016;2023-03-04T09:39:57;101693.78;;;4.83;64.94
65718;BME280;52445;52.466;-1.016;2023-03-04T09:42:29;101686.22;;;4.86;64.88
65718;BME280;52445;52.466;-1.016;2023-03-04T09:44:58;101687.19;;;4.88;64.66
65718;BME280;52445;52.466;-1.016;2023-03-04T09:47:25;101687.31;;;4.92;64.95
65718;BME280;52445;52.466;-1.016;2023-03-04T09:49:55;101687.53;;;4.96;64.40
65718;BME280;52445;52.466;-1.016;2023-03-04T09:52:49;101682.53;;;4.99;65.10
65718;BME280;52445;52.466;-1.016;2023-03-04T09:58:24;101680.28;;;5.06;64.11
65718;BME280;52445;52.466;-1.016;2023-03-04T10:03:50;101676.28;;;5.12;63.52
65718;BME280;52445;52.466;-1.016;2023-03-04T10:06:19;101680.84;;;5.18;64.28
65718;BME280;52445;52.466;-1.016;2023-03-04T10:09:05;101683.59;;;5.23;63.94
65718;BME280;52445;52.466;-1.016;2023-03-04T10:16:53;101677.00;;;5.48;63.31
65718;BME280;52445;52.466;-1.016;2023-03-04T10:22:16;101675.66;;;5.36;63.01
65718;BME280;52445;52.466;-1.016;2023-03-04T10:24:45;101676.72;;;5.42;62.92
65718;BME280;52445;52.466;-1.016;2023-03-04T10:27:16;101677.69;;;5.44;62.04
65718;BME280;52445;52.466;-1.016;2023-03-04T10:29:44;101674.16;;;5.42;62.09
65718;BME280;52445;52.466;-1.016;2023-03-04T10:32:17;101675.03;;;5.42;62.04
65718;BME280;52445;52.466;-1.016;2023-03-04T10:34:44;101674.22;;;5.43;62.91
65718;BME280;52445;52.466;-1.016;2023-03-04T10:37:11;101673.63;;;5.49;62.10
65718;BME280;52445;52.466;-1.016;2023-03-04T10:39:41;101674.56;;;5.51;62.51
65718;BME280;52445;52.466;-1.016;2023-03-04T10:47:30;101673.97;;;5.57;62.87
65718;BME280;52445;52.466;-1.016;2023-03-04T10:50:00;101664.84;;;5.63;62.01
65718;BME280;52445;52.466;-1.016;2023-03-04T10:52:46;101661.66;;;5.69;62.67
65718;BME280;52445;52.466;-1.016;2023-03-04T10:55:18;101656.72;;;5.74;62.37
65718;BME280;52445;52.466;-1.016;2023-03-04T10:57:49;101655.28;;;5.81;61.47
65718;BME280;52445;52.466;-1.016;2023-03-04T11:03:30;101655.28;;;6.22;60.70
65718;BME280;52445;52.466;-1.016;2023-03-04T11:06:19;101657.44;;;6.11;61.23
65718;BME280;52445;52.466;-1.016;2023-03-04T11:08:55;101656.53;;;6.10;60.70
65718;BME280;52445;52.466;-1.016;2023-03-04T11:11:37;101660.03;;;6.12;60.36
65718;BME280;52445;52.466;-1.016;2023-03-04T11:14:20;101654.22;;;6.16;61.61
65718;BME280;52445;52.466;-1.016;2023-03-04T11:16:53;101656.91;;;6.20;59.83
65718;BME280;52445;52.466;-1.016;2023-03-04T11:19:22;101657.88;;;6.22;60.15
65718;BME280;52445;52.466;-1.016;2023-03-04T11:21:51;101663.94;;;6.24;60.23
65718;BME280;52445;52.466;-1.016;2023-03-04T11:24:25;101658.78;;;6.24;60.72
65718;BME280;52445;52.466;-1.016;2023-03-04T11:27:05;101649.66;;;6.30;61.03
65718;BME280;52445;52.466;-1.016;2023-03-04T11:32:31;101644.59;;;6.34;60.79
65718;BME280;52445;52.466;-1.016;2023-03-04T11:35:25;101645.13;;;6.25;59.98
65718;BME280;52445;52.466;-1.016;2023-03-04T11:40:50;101633.88;;;6.23;60.22
65718;BME280;52445;52.466;-1.016;2023-03-04T11:43:24;101635.63;;;6.24;59.95
65718;BME280;52445;52.466;-1.016;2023-03-04T11:56:59;101622.91;;;6.27;59.36
65718;BME280;52445;52.466;-1.016;2023-03-04T11:59:36;101617.59;;;6.22;59.77
65718;BME280;52445;52.466;-1.016;2023-03-04T12:02:16;101613.84;;;6.15;60.60
65718;BME280;52445;52.466;-1.016;2023-03-04T12:26:30;101593.84;;;6.08;59.82
65718;BME280;52445;52.466;-1.016;2023-03-04T12:31:41;101584.25;;;6.04;59.26
65718;BME280;52445;52.466;-1.016;2023-03-04T12:46:14;101553.38;;;6.04;60.66
65718;BME280;52445;52.466;-1.016;2023-03-04T12:48:54;101565.44;;;6.05;59.80
65718;BME280;52445;52.466;-1.016;2023-03-04T12:54:43;101545.97;;;6.12;59.31
65718;BME280;52445;52.466;-1.016;2023-03-04T12:57:14;101541.59;;;6.09;58.95
65718;BME280;52445;52.466;-1.016;2023-03-04T13:06:14;101534.16;;;6.17;59.53
65718;BME280;52445;52.466;-1.016;2023-03-04T13:16:43;101525.56;;;6.39;58.41
65718;BME280;52445;52.466;-1.016;2023-03-04T13:39:23;101514.13;;;6.54;58.64
65718;BME280;52445;52.466;-1.016;2023-03-04T13:41:52;101516.63;;;6.52;58.14
65718;BME280;52445;52.466;-1.016;2023-03-04T13:47:20;101512.13;;;6.47;58.68
65718;BME280;52445;52.466;-1.016;2023-03-04T13:49:48;101509.56;;;6.47;58.91
65718;BME280;52445;52.466;-1.016;2023-03-04T13:55:39;101500.16;;;6.47;58.63
65718;BME280;52445;52.466;-1.016;2023-03-04T13:58:25;101503.69;;;6.51;58.30
65718;BME280;52445;52.466;-1.016;2023-03-04T14:00:54;101500.41;;;6.55;58.45
65718;BME280;52445;52.466;-1.016;2023-03-04T14:03:23;101490.13;;;6.55;58.99
65718;BME280;52445;52.466;-1.016;2023-03-04T14:06:14;101497.75;;;6.52;58.67
65718;BME280;52445;52.466;-1.016;2023-03-04T14:08:42;101491.78;;;6.53;57.01
65718;BME280;52445;52.466;-1.016;2023-03-04T14:11:12;101493.41;;;6.51;56.97
65718;BME280;52445;52.466;-1.016;2023-03-04T14:13:39;101496.81;;;6.50;57.57
65718;BME280;52445;52.466;-1.016;2023-03-04T14:16:07;101495.25;;;6.53;58.72
65718;BME280;52445;52.466;-1.016;2023-03-04T14:18:34;101483.34;;;6.57;57.42
65718;BME280;52445;52.466;-1.016;2023-03-04T14:21:02;101489.19;;;6.53;58.36
65718;BME280;52445;52.466;-1.016;2023-03-04T14:23:31;101481.66;;;6.58;58.47
65718;BME280;52445;52.466;-1.016;2023-03-04T14:28:45;101481.59;;;6.56;58.60
65718;BME280;52445;52.466;-1.016;2023-03-04T14:31:17;101472.94;;;6.54;58.64
65718;BME280;52445;52.466;-1.016;2023-03-04T14:33:47;101466.16;;;6.56;58.57
65718;BME280;52445;52.466;-1.016;2023-03-04T14:36:17;101459.22;;;6.55;57.38
65718;BME280;52445;52.466;-1.016;2023-03-04T14:38:50;101455.84;;;6.56;58.28
65718;BME280;52445;52.466;-1.016;2023-03-04T14:41:24;101457.72;;;6.60;58.17
65718;BME280;52445;52.466;-1.016;2023-03-04T14:47:00;101454.63;;;6.71;57.03
65718;BME280;52445;52.466;-1.016;2023-03-04T14:49:35;101453.00;;;6.73;58.02
65718;BME280;52445;52.466;-1.016;2023-03-04T14:52:02;101447.13;;;6.77;58.58
65718;BME280;52445;52.466;-1.016;2023-03-04T14:57:24;101439.31;;;6.74;56.93
65718;BME280;52445;52.466;-1.016;2023-03-04T14:59:52;101440.97;;;6.72;56.51
65718;BME280;52445;52.466;-1.016;2023-03-04T15:05:08;101440.97;;;6.72;57.59
65718;BME280;52445;52.466;-1.016;2023-03-04T15:07:43;101428.88;;;6.71;56.70
65718;BME280;52445;52.466;-1.016;2023-03-04T15:10:20;101427.13;;;6.69;56.50
65718;BME280;52445;52.466;-1.016;2023-03-04T15:12:53;101418.59;;;6.71;56.66
65718;BME280;52445;52.466;-1.016;2023-03-04T15:15:40;101410.72;;;6.66;57.07
65718;BME280;52445;52.466;-1.016;2023-03-04T15:18:25;101415.09;;;6.68;58.38